sensor_id;sensor_type;location;lat;lon;timestamp;P1;durP1;ratioP1;P2;durP2;ratioP2
4307;SDS011;2167;53.448;9.984;2023-04-07T00:01:57;14.77;;;7.10;;
4307;SDS011;2167;53.448;9.984;2023-04-07T00:04:23;10.27;;;6.90;;
4307;SDS011;2167;53.448;9.984;2023-04-07T00:06:49;10.20;;;5.50;;
4307;SDS011;2167;53.448;9.984;2023-04-07T00:09:14;9.13;;;5.70;;
4307;SDS011;2167;53.448;9.984;2023-04-07T00:11:40;12.07;;;8.30;;
4307;SDS011;2167;53.448;9.984;2023-04-07T00:14:05;11.77;;;7.60;;
4307;SDS011;2167;53.448;9.984;2023-04-07T00:16:31;14.17;;;6.97;;
4307;SDS011;2167;53.448;9.984;2023-04-07T00:18:56;6.63;;;5.60;;
4307;SDS011;2167;53.448;9.984;2023-04-07T00:21:22;10.17;;;6.17;;
4307;SDS011;2167;53.448;9.984;2023-04-07T00:23:48;6.93;;;5.73;;
4307;SDS011;2167;53.448;9.984;2023-04-07T00:26:13;7.40;;;6.40;;
4307;SDS011;2167;53.448;9.984;2023-04-07T00:28:39;8.30;;;6.47;;
4307;SDS011;2167;53.448;9.984;2023-04-07T00:31:05;8.40;;;6.00;;
4307;SDS011;2167;53.448;9.984;2023-04-07T00:33:31;8.70;;;6.20;;
4307;SDS011;2167;53.448;9.984;2023-04-07T00:35:56;11.07;;;7.07;;
4307;SDS011;2167;53.448;9.984;2023-04-07T00:38:22;9.57;;;5.90;;
4307;SDS011;2167;53.448;9.984;2023-04-07T00:40:48;8.27;;;5.80;;
4307;SDS011;2167;53.448;9.984;2023-04-07T00:43:14;6.50;;;5.90;;
4307;SDS011;2167;53.448;9.984;2023-04-07T00:45:40;8.77;;;6.70;;
4307;SDS011;2167;53.448;9.984;2023-04-07T00:48:06;8.90;;;6.63;;
4307;SDS011;2167;53.448;9.984;2023-04-07T00:50:32;9.70;;;6.97;;
4307;SDS011;2167;53.448;9.984;2023-04-07T00:52:57;10.50;;;5.80;;
4307;SDS011;2167;53.448;9.984;2023-04-07T00:55:23;11.17;;;7.40;;
4307;SDS011;2167;53.448;9.984;2023-04-07T00:57:49;8.03;;;6.30;;
4307;SDS011;2167;53.448;9.984;2023-04-07T01:00:15;16.37;;;7.00;;
4307;SDS011;2167;53.448;9.984;2023-04-07T01:02:52;14.73;;;7.03;;
4307;SDS011;2167;53.448;9.984;2023-04-07T01:05:30;10.17;;;6.97;;
4307;SDS011;2167;53.448;9.984;2023-04-07T01:11:17;8.40;;;5.33;;
4307;SDS011;2167;53.448;9.984;2023-04-07T01:13:50;8.13;;;6.10;;
4307;SDS011;2167;53.448;9.984;2023-04-07T01:16:26;11.30;;;5.40;;
4307;SDS011;2167;53.448;9.984;2023-04-07T01:19:13;12.43;;;6.77;;
4307;SDS011;2167;53.448;9.984;2023-04-07T01:21:40;11.93;;;6.50;;
4307;SDS011;2167;53.448;9.984;2023-04-07T01:27:13;9.40;;;7.00;;
4307;SDS011;2167;53.448;9.984;2023-04-07T01:29:42;11.87;;;6.87;;
4307;SDS011;2167;53.448;9.984;2023-04-07T01:32:13;7.50;;;6.00;;
4307;SDS011;2167;53.448;9.984;2023-04-07T01:34:40;8.33;;;6.60;;
4307;SDS011;2167;53.448;9.984;2023-04-07T01:37:07;8.40;;;6.17;;
4307;SDS011;2167;53.448;9.984;2023-04-07T01:39:34;8.50;;;6.63;;
4307;SDS011;2167;53.448;9.984;2023-04-07T01:42:02;10.80;;;5.70;;
4307;SDS011;2167;53.448;9.984;2023-04-07T01:44:30;8.83;;;5.43;;
4307;SDS011;2167;53.448;9.984;2023-04-07T01:46:56;9.40;;;6.23;;
4307;SDS011;2167;53.448;9.984;2023-04-07T01:49:24;10.07;;;5.97;;
4307;SDS011;2167;53.448;9.984;2023-04-07T01:51:51;8.30;;;5.63;;
4307;SDS011;2167;53.448;9.984;2023-04-07T01:54:18;10.83;;;6.63;;
4307;SDS011;2167;53.448;9.984;2023-04-07T01:56:44;13.17;;;7.03;;
4307;SDS011;2167;53.448;9.984;2023-04-07T01:59:10;10.80;;;6.83;;
4307;SDS011;2167;53.448;9.984;2023-04-07T02:01:36;9.87;;;6.50;;
4307;SDS011;2167;53.448;9.984;2023-04-07T02:04:11;6.90;;;6.20;;
4307;SDS011;2167;53.448;9.984;2023-04-07T02:06:51;7.40;;;5.57;;
4307;SDS011;2167;53.448;9.984;2023-04-07T02:09:20;8.10;;;5.80;;
4307;SDS011;2167;53.448;9.984;2023-04-07T02:11:48;7.90;;;5.70;;
4307;SDS011;2167;53.448;9.984;2023-04-07T02:14:16;5.83;;;5.23;;
4307;SDS011;2167;53.448;9.984;2023-04-07T02:16:45;4.60;;;4.20;;
4307;SDS011;2167;53.448;9.984;2023-04-07T02:19:11;6.60;;;4.97;;
4307;SDS011;2167;53.448;9.984;2023-04-07T02:21:37;6.60;;;4.50;;
4307;SDS011;2167;53.448;9.984;2023-04-07T02:24:05;11.65;;;7.68;;
4307;SDS011;2167;53.448;9.984;2023-04-07T02:26:34;9.30;;;5.80;;
4307;SDS011;2167;53.448;9.984;2023-04-07T02:29:00;5.50;;;5.00;;
4307;SDS011;2167;53.448;9.984;2023-04-07T02:31:29;6.30;;;5.30;;
4307;SDS011;2167;53.448;9.984;2023-04-07T02:33:54;7.30;;;5.27;;
4307;SDS011;2167;53.448;9.984;2023-04-07T02:36:20;7.43;;;6.20;;
4307;SDS011;2167;53.448;9.984;2023-04-07T02:38:46;8.60;;;6.20;;
4307;SDS011;2167;53.448;9.984;2023-04-07T02:41:11;5.73;;;5.13;;
4307;SDS011;2167;53.448;9.984;2023-04-07T02:43:37;5.43;;;4.70;;
4307;SDS011;2167;53.448;9.984;2023-04-07T02:46:02;7.63;;;5.43;;
4307;SDS011;2167;53.448;9.984;2023-04-07T02:48:28;14.33;;;4.97;;
4307;SDS011;2167;53.448;9.984;2023-04-07T02:50:54;5.90;;;4.77;;
4307;SDS011;2167;53.448;9.984;2023-04-07T02:53:19;6.97;;;4.80;;
4307;SDS011;2167;53.448;9.984;2023-04-07T02:55:45;6.47;;;5.18;;
4307;SDS011;2167;53.448;9.984;2023-04-07T02:58:11;6.23;;;5.20;;
4307;SDS011;2167;53.448;9.984;2023-04-07T03:00:36;5.77;;;4.57;;
4307;SDS011;2167;53.448;9.984;2023-04-07T03:03:02;8.43;;;4.90;;
4307;SDS011;2167;53.448;9.984;2023-04-07T03:05:28;8.67;;;4.80;;
4307;SDS011;2167;53.448;9.984;2023-04-07T03:07:53;5.23;;;4.73;;
4307;SDS011;2167;53.448;9.984;2023-04-07T03:10:19;8.03;;;4.90;;
4307;SDS011;2167;53.448;9.984;2023-04-07T03:12:44;5.93;;;4.17;;
4307;SDS011;2167;53.448;9.984;2023-04-07T03:15:10;6.23;;;4.80;;
4307;SDS011;2167;53.448;9.984;2023-04-07T03:17:35;5.10;;;4.60;;
4307;SDS011;2167;53.448;9.984;2023-04-07T03:20:01;8.77;;;5.30;;
4307;SDS011;2167;53.448;9.984;2023-04-07T03:22:27;5.60;;;4.13;;
4307;SDS011;2167;53.448;9.984;2023-04-07T03:24:53;7.37;;;4.50;;
4307;SDS011;2167;53.448;9.984;2023-04-07T03:27:18;8.83;;;5.97;;
4307;SDS011;2167;53.448;9.984;2023-04-07T03:29:44;7.00;;;5.97;;
4307;SDS011;2167;53.448;9.984;2023-04-07T03:32:10;6.30;;;4.77;;
4307;SDS011;2167;53.448;9.984;2023-04-07T03:34:36;6.13;;;4.10;;
4307;SDS011;2167;53.448;9.984;2023-04-07T03:37:02;7.03;;;5.67;;
4307;SDS011;2167;53.448;9.984;2023-04-07T03:39:28;5.83;;;5.00;;
4307;SDS011;2167;53.448;9.984;2023-04-07T03:41:53;5.20;;;4.57;;
4307;SDS011;2167;53.448;9.984;2023-04-07T03:44:20;5.20;;;4.70;;
4307;SDS011;2167;53.448;9.984;2023-04-07T03:46:45;7.57;;;4.90;;
4307;SDS011;2167;53.448;9.984;2023-04-07T03:49:12;5.83;;;4.13;;
4307;SDS011;2167;53.448;9.984;2023-04-07T03:51:38;5.30;;;4.10;;
4307;SDS011;2167;53.448;9.984;2023-04-07T03:54:03;5.57;;;4.43;;
4307;SDS011;2167;53.448;9.984;2023-04-07T03:56:29;5.40;;;4.60;;
4307;SDS011;2167;53.448;9.984;2023-04-07T03:58:55;3.50;;;3.30;;
4307;SDS011;2167;53.448;9.984;2023-04-07T04:01:20;5.47;;;4.40;;
4307;SDS011;2167;53.448;9.984;2023-04-07T04:03:47;7.17;;;4.30;;
4307;SDS011;2167;53.448;9.984;2023-04-07T04:06:13;6.13;;;4.43;;
4307;SDS011;2167;53.448;9.984;2023-04-07T04:08:39;4.57;;;3.97;;
4307;SDS011;2167;53.448;9.984;2023-04-07T04:11:05;7.50;;;4.17;;
4307;SDS011;2167;53.448;9.984;2023-04-07T04:13:30;4.30;;;3.80;;
4307;SDS011;2167;53.448;9.984;2023-04-07T04:15:56;4.63;;;4.17;;
4307;SDS011;2167;53.448;9.984;2023-04-07T04:18:21;6.20;;;4.50;;
4307;SDS011;2167;53.448;9.984;2023-04-07T04:20:47;7.43;;;4.83;;
4307;SDS011;2167;53.448;9.984;2023-04-07T04:23:13;7.43;;;4.73;;
4307;SDS011;2167;53.448;9.984;2023-04-07T04:25:40;7.00;;;4.30;;
4307;SDS011;2167;53.448;9.984;2023-04-07T04:28:05;4.30;;;3.90;;
4307;SDS011;2167;53.448;9.984;2023-04-07T04:30:31;7.10;;;3.40;;
4307;SDS011;2167;53.448;9.984;2023-04-07T04:32:57;6.33;;;4.33;;
4307;SDS011;2167;53.448;9.984;2023-04-07T04:35:22;11.13;;;6.18;;
4307;SDS011;2167;53.448;9.984;2023-04-07T04:37:48;8.65;;;6.13;;
4307;SDS011;2167;53.448;9.984;2023-04-07T04:40:14;5.90;;;5.00;;
4307;SDS011;2167;53.448;9.984;2023-04-07T04:42:39;6.43;;;4.90;;
4307;SDS011;2167;53.448;9.984;2023-04-07T04:45:05;6.30;;;3.70;;
4307;SDS011;2167;53.448;9.984;2023-04-07T04:47:31;6.30;;;3.90;;
4307;SDS011;2167;53.448;9.984;2023-04-07T04:49:57;5.90;;;4.20;;
4307;SDS011;2167;53.448;9.984;2023-04-07T04:52:23;4.13;;;3.70;;
4307;SDS011;2167;53.448;9.984;2023-04-07T04:54:48;6.30;;;3.97;;
4307;SDS011;2167;53.448;9.984;2023-04-07T04:57:14;5.57;;;4.10;;
4307;SDS011;2167;53.448;9.984;2023-04-07T04:59:40;6.03;;;4.70;;
4307;SDS011;2167;53.448;9.984;2023-04-07T05:02:06;6.63;;;3.73;;
4307;SDS011;2167;53.448;9.984;2023-04-07T05:04:32;5.73;;;4.30;;
4307;SDS011;2167;53.448;9.984;2023-04-07T05:06:57;9.40;;;5.88;;
4307;SDS011;2167;53.448;9.984;2023-04-07T05:09:23;9.50;;;5.20;;
4307;SDS011;2167;53.448;9.984;2023-04-07T05:11:48;6.17;;;4.30;;
4307;SDS011;2167;53.448;9.984;2023-04-07T05:14:14;6.07;;;5.40;;
4307;SDS011;2167;53.448;9.984;2023-04-07T05:16:40;5.53;;;3.93;;
4307;SDS011;2167;53.448;9.984;2023-04-07T05:19:06;7.27;;;4.10;;
4307;SDS011;2167;53.448;9.984;2023-04-07T05:21:31;6.13;;;4.10;;
4307;SDS011;2167;53.448;9.984;2023-04-07T05:23:57;4.40;;;3.70;;
4307;SDS011;2167;53.448;9.984;2023-04-07T05:26:23;4.70;;;3.90;;
4307;SDS011;2167;53.448;9.984;2023-04-07T05:28:48;5.23;;;4.00;;
4307;SDS011;2167;53.448;9.984;2023-04-07T05:31:14;4.63;;;4.23;;
4307;SDS011;2167;53.448;9.984;2023-04-07T05:33:40;6.10;;;4.70;;
4307;SDS011;2167;53.448;9.984;2023-04-07T05:36:05;4.00;;;3.60;;
4307;SDS011;2167;53.448;9.984;2023-04-07T05:38:31;7.35;;;4.85;;
4307;SDS011;2167;53.448;9.984;2023-04-07T05:40:57;5.53;;;4.00;;
4307;SDS011;2167;53.448;9.984;2023-04-07T05:43:22;3.23;;;2.93;;
4307;SDS011;2167;53.448;9.984;2023-04-07T05:45:48;6.90;;;3.80;;
4307;SDS011;2167;53.448;9.984;2023-04-07T05:48:13;3.87;;;3.33;;
4307;SDS011;2167;53.448;9.984;2023-04-07T05:50:39;7.43;;;3.77;;
4307;SDS011;2167;53.448;9.984;2023-04-07T05:53:05;6.17;;;3.70;;
4307;SDS011;2167;53.448;9.984;2023-04-07T05:55:30;6.20;;;4.17;;
4307;SDS011;2167;53.448;9.984;2023-04-07T05:57:56;3.87;;;3.10;;
4307;SDS011;2167;53.448;9.984;2023-04-07T06:00:22;8.43;;;4.50;;
4307;SDS011;2167;53.448;9.984;2023-04-07T06:02:47;5.90;;;5.23;;
4307;SDS011;2167;53.448;9.984;2023-04-07T06:05:13;7.10;;;3.47;;
4307;SDS011;2167;53.448;9.984;2023-04-07T06:07:39;4.60;;;4.20;;
4307;SDS011;2167;53.448;9.984;2023-04-07T06:10:05;6.67;;;5.10;;
4307;SDS011;2167;53.448;9.984;2023-04-07T06:12:31;7.07;;;3.50;;
4307;SDS011;2167;53.448;9.984;2023-04-07T06:14:57;5.77;;;3.77;;
4307;SDS011;2167;53.448;9.984;2023-04-07T06:17:22;5.37;;;3.83;;
4307;SDS011;2167;53.448;9.984;2023-04-07T06:19:48;7.50;;;3.77;;
4307;SDS011;2167;53.448;9.984;2023-04-07T06:22:14;6.47;;;4.47;;
4307;SDS011;2167;53.448;9.984;2023-04-07T06:24:39;5.27;;;3.60;;
4307;SDS011;2167;53.448;9.984;2023-04-07T06:27:05;6.50;;;3.93;;
4307;SDS011;2167;53.448;9.984;2023-04-07T06:29:31;7.40;;;4.67;;
4307;SDS011;2167;53.448;9.984;2023-04-07T06:31:58;5.63;;;4.00;;
4307;SDS011;2167;53.448;9.984;2023-04-07T06:34:24;5.47;;;4.20;;
4307;SDS011;2167;53.448;9.984;2023-04-07T06:36:50;6.67;;;4.13;;
4307;SDS011;2167;53.448;9.984;2023-04-07T06:39:15;6.60;;;4.73;;
4307;SDS011;2167;53.448;9.984;2023-04-07T06:41:41;5.63;;;3.87;;
4307;SDS011;2167;53.448;9.984;2023-04-07T06:44:10;11.23;;;4.40;;
4307;SDS011;2167;53.448;9.984;2023-04-07T07:03:27;4.93;;;3.43;;
4307;SDS011;2167;53.448;9.984;2023-04-07T07:05:53;6.87;;;3.97;;
4307;SDS011;2167;53.448;9.984;2023-04-07T07:08:22;11.83;;;4.40;;
4307;SDS011;2167;53.448;9.984;2023-04-07T07:10:49;5.37;;;4.10;;
4307;SDS011;2167;53.448;9.984;2023-04-07T07:13:15;5.68;;;4.40;;
4307;SDS011;2167;53.448;9.984;2023-04-07T07:15:40;8.20;;;5.70;;
4307;SDS011;2167;53.448;9.984;2023-04-07T07:18:06;4.20;;;3.83;;
4307;SDS011;2167;53.448;9.984;2023-04-07T07:20:31;5.67;;;3.27;;
4307;SDS011;2167;53.448;9.984;2023-04-07T07:22:57;10.50;;;4.37;;
4307;SDS011;2167;53.448;9.984;2023-04-07T07:25:24;4.77;;;3.60;;
4307;SDS011;2167;53.448;9.984;2023-04-07T07:27:51;6.23;;;3.43;;
4307;SDS011;2167;53.448;9.984;2023-04-07T07:30:17;5.47;;;4.50;;
4307;SDS011;2167;53.448;9.984;2023-04-07T07:32:46;4.40;;;3.90;;
4307;SDS011;2167;53.448;9.984;2023-04-07T07:35:12;7.53;;;3.60;;
4307;SDS011;2167;53.448;9.984;2023-04-07T07:37:38;7.20;;;4.07;;
4307;SDS011;2167;53.448;9.984;2023-04-07T07:40:04;4.30;;;3.87;;
4307;SDS011;2167;53.448;9.984;2023-04-07T07:42:30;5.20;;;3.87;;
4307;SDS011;2167;53.448;9.984;2023-04-07T07:44:56;7.18;;;4.80;;
4307;SDS011;2167;53.448;9.984;2023-04-07T07:47:22;7.73;;;4.20;;
4307;SDS011;2167;53.448;9.984;2023-04-07T07:49:48;6.80;;;3.53;;
4307;SDS011;2167;53.448;9.984;2023-04-07T07:52:14;5.60;;;3.93;;
4307;SDS011;2167;53.448;9.984;2023-04-07T07:54:40;5.33;;;3.80;;
4307;SDS011;2167;53.448;9.984;2023-04-07T07:57:06;7.20;;;3.70;;
4307;SDS011;2167;53.448;9.984;2023-04-07T07:59:32;6.13;;;4.10;;
4307;SDS011;2167;53.448;9.984;2023-04-07T08:01:58;10.63;;;3.97;;
4307;SDS011;2167;53.448;9.984;2023-04-07T08:04:24;6.03;;;4.30;;
4307;SDS011;2167;53.448;9.984;2023-04-07T08:06:50;4.77;;;4.20;;
4307;SDS011;2167;53.448;9.984;2023-04-07T08:09:19;6.60;;;4.80;;
4307;SDS011;2167;53.448;9.984;2023-04-07T08:11:45;5.17;;;4.10;;
4307;SDS011;2167;53.448;9.984;2023-04-07T08:14:12;10.80;;;4.00;;
4307;SDS011;2167;53.448;9.984;2023-04-07T08:16:38;6.13;;;4.23;;
4307;SDS011;2167;53.448;9.984;2023-04-07T08:19:04;4.20;;;3.80;;
4307;SDS011;2167;53.448;9.984;2023-04-07T08:21:30;6.73;;;3.53;;
4307;SDS011;2167;53.448;9.984;2023-04-07T08:23:55;6.03;;;3.80;;
4307;SDS011;2167;53.448;9.984;2023-04-07T08:26:21;9.17;;;4.53;;
4307;SDS011;2167;53.448;9.984;2023-04-07T08:28:50;6.60;;;4.50;;
4307;SDS011;2167;53.448;9.984;2023-04-07T08:31:15;4.80;;;3.73;;
4307;SDS011;2167;53.448;9.984;2023-04-07T08:33:41;5.27;;;3.90;;
4307;SDS011;2167;53.448;9.984;2023-04-07T08:36:07;6.70;;;4.53;;
4307;SDS011;2167;53.448;9.984;2023-04-07T08:38:32;5.80;;;4.13;;
4307;SDS011;2167;53.448;9.984;2023-04-07T08:41:02;8.80;;;4.20;;
4307;SDS011;2167;53.448;9.984;2023-04-07T08:43:33;5.90;;;4.10;;
4307;SDS011;2167;53.448;9.984;2023-04-07T08:46:00;8.77;;;4.80;;
4307;SDS011;2167;53.448;9.984;2023-04-07T08:48:27;7.80;;;4.60;;
4307;SDS011;2167;53.448;9.984;2023-04-07T08:50:58;7.10;;;4.10;;
4307;SDS011;2167;53.448;9.984;2023-04-07T08:53:34;9.80;;;4.07;;
4307;SDS011;2167;53.448;9.984;2023-04-07T08:56:14;5.40;;;3.10;;
4307;SDS011;2167;53.448;9.984;2023-04-07T08:58:46;12.43;;;4.80;;
4307;SDS011;2167;53.448;9.984;2023-04-07T09:01:12;9.07;;;4.30;;
4307;SDS011;2167;53.448;9.984;2023-04-07T09:03:40;6.67;;;4.73;;
4307;SDS011;2167;53.448;9.984;2023-04-07T09:06:08;6.07;;;4.63;;
4307;SDS011;2167;53.448;9.984;2023-04-07T09:08:37;5.63;;;3.90;;
4307;SDS011;2167;53.448;9.984;2023-04-07T09:11:03;9.80;;;4.57;;
4307;SDS011;2167;53.448;9.984;2023-04-07T09:13:28;6.90;;;3.27;;
4307;SDS011;2167;53.448;9.984;2023-04-07T09:15:55;5.00;;;3.60;;
4307;SDS011;2167;53.448;9.984;2023-04-07T09:18:21;3.83;;;3.40;;
4307;SDS011;2167;53.448;9.984;2023-04-07T09:25:54;6.30;;;4.17;;
4307;SDS011;2167;53.448;9.984;2023-04-07T09:28:19;3.67;;;3.30;;
4307;SDS011;2167;53.448;9.984;2023-04-07T09:30:53;8.50;;;3.87;;
4307;SDS011;2167;53.448;9.984;2023-04-07T09:33:26;6.30;;;3.67;;
4307;SDS011;2167;53.448;9.984;2023-04-07T09:35:52;6.57;;;2.97;;
4307;SDS011;2167;53.448;9.984;2023-04-07T09:38:18;5.80;;;4.30;;
4307;SDS011;2167;53.448;9.984;2023-04-07T09:40:44;4.93;;;3.50;;
4307;SDS011;2167;53.448;9.984;2023-04-07T09:43:18;3.77;;;3.30;;
4307;SDS011;2167;53.448;9.984;2023-04-07T09:45:44;6.33;;;3.90;;
4307;SDS011;2167;53.448;9.984;2023-04-07T09:48:19;3.97;;;3.57;;
4307;SDS011;2167;53.448;9.984;2023-04-07T09:50:46;6.17;;;3.80;;
4307;SDS011;2167;53.448;9.984;2023-04-07T09:53:14;7.47;;;3.50;;
4307;SDS011;2167;53.448;9.984;2023-04-07T09:55:39;4.90;;;3.17;;
4307;SDS011;2167;53.448;9.984;2023-04-07T09:58:06;10.20;;;4.30;;
4307;SDS011;2167;53.448;9.984;2023-04-07T10:00:33;5.00;;;4.10;;
4307;SDS011;2167;53.448;9.984;2023-04-07T10:02:59;6.47;;;4.13;;
4307;SDS011;2167;53.448;9.984;2023-04-07T10:05:25;6.47;;;4.90;;
4307;SDS011;2167;53.448;9.984;2023-04-07T10:07:52;9.67;;;4.50;;
4307;SDS011;2167;53.448;9.984;2023-04-07T10:10:18;4.43;;;3.87;;
4307;SDS011;2167;53.448;9.984;2023-04-07T10:12:44;8.73;;;3.90;;
4307;SDS011;2167;53.448;9.984;2023-04-07T10:15:11;5.87;;;4.07;;
4307;SDS011;2167;53.448;9.984;2023-04-07T10:17:40;5.73;;;4.27;;
4307;SDS011;2167;53.448;9.984;2023-04-07T10:20:11;5.57;;;4.83;;
4307;SDS011;2167;53.448;9.984;2023-04-07T10:22:37;4.60;;;3.70;;
4307;SDS011;2167;53.448;9.984;2023-04-07T10:25:10;4.30;;;3.90;;
4307;SDS011;2167;53.448;9.984;2023-04-07T10:27:38;9.30;;;4.93;;
4307;SDS011;2167;53.448;9.984;2023-04-07T10:30:24;7.23;;;3.80;;
4307;SDS011;2167;53.448;9.984;2023-04-07T10:32:55;3.60;;;3.17;;
4307;SDS011;2167;53.448;9.984;2023-04-07T10:35:22;7.20;;;4.20;;
4307;SDS011;2167;53.448;9.984;2023-04-07T10:40:34;4.27;;;3.87;;
4307;SDS011;2167;53.448;9.984;2023-04-07T10:43:01;8.20;;;4.73;;
4307;SDS011;2167;53.448;9.984;2023-04-07T10:48:18;5.50;;;3.57;;
4307;SDS011;2167;53.448;9.984;2023-04-07T10:50:45;4.83;;;3.30;;
4307;SDS011;2167;53.448;9.984;2023-04-07T10:53:32;3.37;;;3.07;;
4307;SDS011;2167;53.448;9.984;2023-04-07T10:55:58;5.57;;;4.17;;
4307;SDS011;2167;53.448;9.984;2023-04-07T11:03:40;5.77;;;3.40;;
4307;SDS011;2167;53.448;9.984;2023-04-07T11:06:10;5.10;;;3.63;;
4307;SDS011;2167;53.448;9.984;2023-04-07T11:08:41;3.53;;;2.87;;
4307;SDS011;2167;53.448;9.984;2023-04-07T11:11:12;3.73;;;3.00;;
4307;SDS011;2167;53.448;9.984;2023-04-07T11:16:08;4.53;;;2.93;;
4307;SDS011;2167;53.448;9.984;2023-04-07T11:18:34;7.20;;;3.53;;
4307;SDS011;2167;53.448;9.984;2023-04-07T11:21:04;8.37;;;3.40;;
4307;SDS011;2167;53.448;9.984;2023-04-07T11:23:43;6.10;;;3.60;;
4307;SDS011;2167;53.448;9.984;2023-04-07T11:26:10;7.83;;;3.33;;
4307;SDS011;2167;53.448;9.984;2023-04-07T11:31:32;4.83;;;3.90;;
4307;SDS011;2167;53.448;9.984;2023-04-07T11:34:02;4.50;;;3.20;;
4307;SDS011;2167;53.448;9.984;2023-04-07T11:36:32;5.70;;;3.83;;
4307;SDS011;2167;53.448;9.984;2023-04-07T11:38:58;3.83;;;3.00;;
4307;SDS011;2167;53.448;9.984;2023-04-07T11:41:26;3.53;;;2.80;;
4307;SDS011;2167;53.448;9.984;2023-04-07T11:44:04;5.85;;;4.10;;
4307;SDS011;2167;53.448;9.984;2023-04-07T11:46:35;5.80;;;4.00;;
4307;SDS011;2167;53.448;9.984;2023-04-07T11:49:08;5.00;;;3.30;;
4307;SDS011;2167;53.448;9.984;2023-04-07T11:51:34;4.47;;;3.80;;
4307;SDS011;2167;53.448;9.984;2023-04-07T11:54:00;6.97;;;4.00;;
4307;SDS011;2167;53.448;9.984;2023-04-07T11:56:26;6.03;;;4.53;;
4307;SDS011;2167;53.448;9.984;2023-04-07T11:58:53;5.80;;;3.40;;
4307;SDS011;2167;53.448;9.984;2023-04-07T12:01:19;5.63;;;4.37;;
4307;SDS011;2167;53.448;9.984;2023-04-07T12:03:56;6.30;;;4.30;;
4307;SDS011;2167;53.448;9.984;2023-04-07T12:06:29;4.10;;;3.30;;
4307;SDS011;2167;53.448;9.984;2023-04-07T12:08:59;5.10;;;3.60;;
4307;SDS011;2167;53.448;9.984;2023-04-07T12:11:32;9.00;;;3.90;;
4307;SDS011;2167;53.448;9.984;2023-04-07T12:13:58;4.70;;;3.70;;
4307;SDS011;2167;53.448;9.984;2023-04-07T12:16:23;4.43;;;3.50;;
4307;SDS011;2167;53.448;9.984;2023-04-07T12:18:49;3.67;;;2.97;;
4307;SDS011;2167;53.448;9.984;2023-04-07T12:21:19;4.67;;;3.57;;
4307;SDS011;2167;53.448;9.984;2023-04-07T12:23:45;6.23;;;3.70;;
4307;SDS011;2167;53.448;9.984;2023-04-07T12:26:11;3.17;;;2.80;;
4307;SDS011;2167;53.448;9.984;2023-04-07T12:28:37;2.97;;;2.70;;
4307;SDS011;2167;53.448;9.984;2023-04-07T12:31:03;5.20;;;3.13;;
4307;SDS011;2167;53.448;9.984;2023-04-07T12:33:29;7.13;;;3.23;;
4307;SDS011;2167;53.448;9.984;2023-04-07T12:35:57;3.50;;;2.90;;
4307;SDS011;2167;53.448;9.984;2023-04-07T12:38:23;4.33;;;3.13;;
4307;SDS011;2167;53.448;9.984;2023-04-07T12:40:49;4.17;;;2.70;;
4307;SDS011;2167;53.448;9.984;2023-04-07T12:43:15;5.03;;;3.00;;
4307;SDS011;2167;53.448;9.984;2023-04-07T12:45:59;5.43;;;2.87;;
4307;SDS011;2167;53.448;9.984;2023-04-07T12:48:25;2.60;;;2.40;;
4307;SDS011;2167;53.448;9.984;2023-04-07T12:50:56;4.30;;;2.57;;
4307;SDS011;2167;53.448;9.984;2023-04-07T12:53:21;3.57;;;2.70;;
4307;SDS011;2167;53.448;9.984;2023-04-07T12:55:47;5.60;;;3.60;;
4307;SDS011;2167;53.448;9.984;2023-04-07T12:58:13;2.67;;;2.47;;
4307;SDS011;2167;53.448;9.984;2023-04-07T13:00:39;3.23;;;2.00;;
4307;SDS011;2167;53.448;9.984;2023-04-07T13:03:05;4.67;;;2.90;;
4307;SDS011;2167;53.448;9.984;2023-04-07T13:05:31;3.77;;;2.30;;
4307;SDS011;2167;53.448;9.984;2023-04-07T13:07:56;3.67;;;2.70;;
4307;SDS011;2167;53.448;9.984;2023-04-07T13:10:22;4.13;;;2.33;;
4307;SDS011;2167;53.448;9.984;2023-04-07T13:12:49;5.20;;;2.90;;
4307;SDS011;2167;53.448;9.984;2023-04-07T13:15:14;2.97;;;2.23;;
4307;SDS011;2167;53.448;9.984;2023-04-07T13:17:40;4.73;;;3.50;;
4307;SDS011;2167;53.448;9.984;2023-04-07T13:20:06;3.53;;;2.50;;
4307;SDS011;2167;53.448;9.984;2023-04-07T13:22:32;4.43;;;2.67;;
4307;SDS011;2167;53.448;9.984;2023-04-07T13:24:58;4.17;;;2.03;;
4307;SDS011;2167;53.448;9.984;2023-04-07T13:27:23;4.23;;;2.30;;
4307;SDS011;2167;53.448;9.984;2023-04-07T13:29:49;3.90;;;2.80;;
4307;SDS011;2167;53.448;9.984;2023-04-07T13:32:14;3.20;;;2.47;;
4307;SDS011;2167;53.448;9.984;2023-04-07T13:34:41;4.53;;;2.37;;
4307;SDS011;2167;53.448;9.984;2023-04-07T13:37:07;3.23;;;2.40;;
4307;SDS011;2167;53.448;9.984;2023-04-07T13:39:33;2.70;;;2.40;;
4307;SDS011;2167;53.448;9.984;2023-04-07T13:41:59;2.33;;;2.13;;
4307;SDS011;2167;53.448;9.984;2023-04-07T13:44:25;4.60;;;2.80;;
4307;SDS011;2167;53.448;9.984;2023-04-07T13:46:51;2.43;;;2.23;;
4307;SDS011;2167;53.448;9.984;2023-04-07T13:49:18;1.83;;;1.40;;
4307;SDS011;2167;53.448;9.984;2023-04-07T13:51:44;4.00;;;1.80;;
4307;SDS011;2167;53.448;9.984;2023-04-07T13:54:09;3.23;;;2.27;;
4307;SDS011;2167;53.448;9.984;2023-04-07T13:56:35;2.47;;;1.43;;
4307;SDS011;2167;53.448;9.984;2023-04-07T13:59:02;1.83;;;1.40;;
4307;SDS011;2167;53.448;9.984;2023-04-07T14:01:31;2.00;;;0.90;;
4307;SDS011;2167;53.448;9.984;2023-04-07T14:04:02;6.33;;;1.70;;
4307;SDS011;2167;53.448;9.984;2023-04-07T14:06:28;4.10;;;1.47;;
4307;SDS011;2167;53.448;9.984;2023-04-07T14:08:55;2.27;;;1.50;;
4307;SDS011;2167;53.448;9.984;2023-04-07T14:11:21;1.83;;;1.60;;
4307;SDS011;2167;53.448;9.984;2023-04-07T14:13:47;4.97;;;2.10;;
4307;SDS011;2167;53.448;9.984;2023-04-07T14:16:15;2.15;;;1.70;;
4307;SDS011;2167;53.448;9.984;2023-04-07T14:18:41;1.60;;;1.43;;
4307;SDS011;2167;53.448;9.984;2023-04-07T14:21:07;2.80;;;1.40;;
4307;SDS011;2167;53.448;9.984;2023-04-07T14:23:32;2.20;;;2.00;;
4307;SDS011;2167;53.448;9.984;2023-04-07T14:25:58;2.47;;;1.70;;
4307;SDS011;2167;53.448;9.984;2023-04-07T14:28:25;2.77;;;1.50;;
4307;SDS011;2167;53.448;9.984;2023-04-07T14:30:52;5.03;;;1.50;;
4307;SDS011;2167;53.448;9.984;2023-04-07T14:33:18;2.00;;;1.50;;
4307;SDS011;2167;53.448;9.984;2023-04-07T14:35:45;3.20;;;1.87;;
4307;SDS011;2167;53.448;9.984;2023-04-07T14:38:10;2.53;;;1.10;;
4307;SDS011;2167;53.448;9.984;2023-04-07T14:40:36;1.57;;;1.47;;
4307;SDS011;2167;53.448;9.984;2023-04-07T14:43:02;4.77;;;1.47;;
4307;SDS011;2167;53.448;9.984;2023-04-07T14:45:28;1.63;;;1.53;;
4307;SDS011;2167;53.448;9.984;2023-04-07T14:47:54;2.40;;;1.27;;
4307;SDS011;2167;53.448;9.984;2023-04-07T14:50:19;2.17;;;1.70;;
4307;SDS011;2167;53.448;9.984;2023-04-07T14:52:45;2.03;;;1.63;;
4307;SDS011;2167;53.448;9.984;2023-04-07T14:55:11;6.33;;;2.60;;
4307;SDS011;2167;53.448;9.984;2023-04-07T14:57:37;3.67;;;2.47;;
4307;SDS011;2167;53.448;9.984;2023-04-07T15:00:03;4.30;;;2.47;;
4307;SDS011;2167;53.448;9.984;2023-04-07T15:02:31;4.67;;;3.17;;
4307;SDS011;2167;53.448;9.984;2023-04-07T15:04:57;6.40;;;3.53;;
4307;SDS011;2167;53.448;9.984;2023-04-07T15:07:23;7.70;;;2.90;;
4307;SDS011;2167;53.448;9.984;2023-04-07T15:09:49;6.67;;;3.37;;
4307;SDS011;2167;53.448;9.984;2023-04-07T15:12:14;8.50;;;4.40;;
4307;SDS011;2167;53.448;9.984;2023-04-07T15:14:40;4.37;;;2.77;;
4307;SDS011;2167;53.448;9.984;2023-04-07T15:17:06;3.07;;;2.40;;
4307;SDS011;2167;53.448;9.984;2023-04-07T15:19:32;5.67;;;4.23;;
4307;SDS011;2167;53.448;9.984;2023-04-07T15:21:57;5.70;;;3.03;;
4307;SDS011;2167;53.448;9.984;2023-04-07T15:24:23;3.50;;;2.60;;
4307;SDS011;2167;53.448;9.984;2023-04-07T15:26:48;3.50;;;2.80;;
4307;SDS011;2167;53.448;9.984;2023-04-07T15:29:14;3.63;;;2.33;;
4307;SDS011;2167;53.448;9.984;2023-04-07T15:31:40;10.87;;;4.83;;
4307;SDS011;2167;53.448;9.984;2023-04-07T15:34:05;6.40;;;4.07;;
4307;SDS011;2167;53.448;9.984;2023-04-07T15:36:31;4.50;;;3.00;;
4307;SDS011;2167;53.448;9.984;2023-04-07T15:39:00;4.47;;;3.00;;
4307;SDS011;2167;53.448;9.984;2023-04-07T15:41:31;6.60;;;4.23;;
4307;SDS011;2167;53.448;9.984;2023-04-07T15:44:05;5.17;;;4.60;;
4307;SDS011;2167;53.448;9.984;2023-04-07T15:46:30;5.13;;;3.90;;
4307;SDS011;2167;53.448;9.984;2023-04-07T15:48:56;9.40;;;4.70;;
4307;SDS011;2167;53.448;9.984;2023-04-07T15:51:22;14.57;;;10.03;;
4307;SDS011;2167;53.448;9.984;2023-04-07T15:53:48;5.07;;;4.00;;
4307;SDS011;2167;53.448;9.984;2023-04-07T15:56:14;9.17;;;7.10;;
4307;SDS011;2167;53.448;9.984;2023-04-07T15:58:39;14.23;;;12.00;;